Time;durP1;ratioP1;P1;durP2;ratioP2;P2;SDS_P1;SDS_P2;PMS_P1;PMS_P2;Temp;Humidity;BMP_temperature;BMP_pressure;BME280_temperature;BME280_humidity;BME280_pressure;Samples;Min_cycle;Max_cycle;Signal;HPM_P1;HPM_P2
2023/10/26 00:01:34;;;;;;;56.00;29.40;;;;;;;5.24;100.00;97356.27;272904;1267;23430;-84
2023/10/26 00:07:56;;;;;;;44.20;25.90;;;;;;;5.36;100.00;97357.88;273675;1267;23366;-84
2023/10/26 00:14:01;;;;;;;46.90;27.50;;;;;;;5.52;100.00;97357.17;273722;1267;22334;-84
2023/10/26 00:20:05;;;;;;;46.30;26.90;;;;;;;5.59;100.00;97360.23;273735;1267;22362;-84
2023/10/26 00:26:07;;;;;;;43.70;26.00;;;;;;;5.67;100.00;97353.91;273352;1267;22210;-86
2023/10/26 00:32:12;;;;;;;41.30;25.20;;;;;;;5.70;100.00;97354.70;273781;1268;22173;-85
2023/10/26 00:38:38;;;;;;;47.00;26.60;;;;;;;5.74;100.00;97350.06;273767;1266;23222;-85
2023/10/26 00:44:51;;;;;;;46.10;25.30;;;;;;;5.77;100.00;97350.45;273932;1267;22292;-85
2023/10/26 00:50:57;;;;;;;36.80;21.70;;;;;;;5.82;100.00;97343.13;273733;1257;23446;-84
2023/10/26 00:57:03;;;;;;;31.90;21.40;;;;;;;5.90;100.00;97346.89;273527;1263;22194;-85
2023/10/26 01:03:06;;;;;;;40.70;24.70;;;;;;;5.98;100.00;97352.73;273622;1267;22831;-85
2023/10/26 01:09:09;;;;;;;37.90;24.30;;;;;;;5.97;100.00;97339.06;273200;1267;22291;-85
2023/10/26 01:15:11;;;;;;;38.40;23.20;;;;;;;5.94;100.00;97336.34;271663;1267;22373;-85
2023/10/26 01:21:16;;;;;;;35.80;24.40;;;;;;;5.90;100.00;97333.61;272113;1267;23643;-84
2023/10/26 01:27:18;;;;;;;41.00;23.30;;;;;;;5.87;100.00;97325.77;273007;1267;22570;-85
2023/10/26 01:33:23;;;;;;;40.90;25.30;;;;;;;5.82;100.00;97321.16;272263;1267;22520;-86
2023/10/26 01:39:26;;;;;;;44.60;25.60;;;;;;;5.81;100.00;97311.62;273689;1267;22199;-85
2023/10/26 01:45:30;;;;;;;42.90;25.90;;;;;;;5.78;100.00;97309.42;273380;1267;22645;-87
2023/10/26 01:51:32;;;;;;;40.60;28.10;;;;;;;5.81;100.00;97302.00;272514;1267;23648;-86
2023/10/26 01:57:35;;;;;;;45.40;27.50;;;;;;;5.87;100.00;97296.90;273247;1267;22186;-85
2023/10/26 02:03:42;;;;;;;37.50;25.30;;;;;;;5.84;100.00;97286.04;273648;1267;22393;-85
2023/10/26 02:09:48;;;;;;;40.30;26.80;;;;;;;5.82;100.00;97274.48;271815;1267;24216;-86
2023/10/26 02:16:13;;;;;;;37.70;25.10;;;;;;;5.76;100.00;97267.68;271583;1266;22518;-85
2023/10/26 02:22:52;;;;;;;45.60;25.80;;;;;;;5.75;100.00;97261.94;273156;1267;23616;-86
2023/10/26 02:28:53;;;;;;;29.90;19.80;;;;;;;5.75;100.00;97253.48;273602;1267;22380;-86
2023/10/26 02:34:56;;;;;;;36.00;24.50;;;;;;;5.69;100.00;97249.20;273720;1269;22303;-85
2023/10/26 02:41:05;;;;;;;39.90;25.10;;;;;;;5.67;100.00;97249.52;273731;1256;22521;-85
2023/10/26 02:47:09;;;;;;;36.80;24.40;;;;;;;5.66;100.00;97235.64;271579;1269;22568;-86
2023/10/26 02:53:11;;;;;;;34.50;22.50;;;;;;;5.66;100.00;97226.02;271190;1269;22662;-86
2023/10/26 02:59:13;;;;;;;35.00;22.50;;;;;;;5.68;100.00;97217.48;272787;1269;22192;-86
2023/10/26 03:05:15;;;;;;;40.20;25.10;;;;;;;5.66;100.00;97204.29;273429;1269;22438;-86
2023/10/26 03:11:17;;;;;;;34.20;20.30;;;;;;;5.58;100.00;97213.19;273468;1269;22477;-86
2023/10/26 03:17:20;;;;;;;38.30;23.30;;;;;;;5.57;100.00;97194.50;273509;1265;22515;-86
2023/10/26 03:23:23;;;;;;;40.50;24.70;;;;;;;5.51;100.00;97184.88;270635;1269;23808;-85
2023/10/26 03:29:50;;;;;;;34.80;22.70;;;;;;;5.51;100.00;97198.45;273477;1269;22464;-85
2023/10/26 03:36:00;;;;;;;37.10;22.10;;;;;;;5.50;100.00;97211.94;272645;1269;22233;-85
2023/10/26 03:42:03;;;;;;;34.50;22.10;;;;;;;5.53;100.00;97227.98;273425;1269;23758;-85
2023/10/26 03:48:05;;;;;;;33.40;21.40;;;;;;;5.59;100.00;97222.97;272395;1269;22568;-86
2023/10/26 03:54:07;;;;;;;34.80;23.10;;;;;;;5.66;100.00;97210.56;271745;1268;23219;-85
2023/10/26 04:00:10;;;;;;;35.50;23.50;;;;;;;5.71;100.00;97198.17;273269;1268;22475;-85
2023/10/26 04:06:15;;;;;;;36.30;22.70;;;;;;;5.73;100.00;97196.15;272811;1269;22241;-86
2023/10/26 04:12:17;;;;;;;34.20;22.70;;;;;;;5.76;100.00;97192.89;272508;1269;22513;-87
2023/10/26 04:18:20;;;;;;;36.00;24.50;;;;;;;5.78;100.00;97181.66;272302;1268;22979;-85
2023/10/26 04:25:06;;;;;;;27.60;19.10;;;;;;;5.81;100.00;97173.20;271766;1266;22533;-85
2023/10/26 04:31:08;;;;;;;35.40;23.60;;;;;;;5.82;100.00;97189.12;271667;1269;22526;-85
2023/10/26 04:37:11;;;;;;;34.10;22.50;;;;;;;5.90;100.00;97201.64;273481;1269;23043;-84
2023/10/26 04:43:13;;;;;;;47.30;26.70;;;;;;;6.01;100.00;97201.33;273094;1269;23686;-85
2023/10/26 04:49:16;;;;;;;46.20;27.00;;;;;;;6.10;100.00;97205.21;271891;1256;22298;-86
2023/10/26 04:55:23;;;;;;;48.30;27.70;;;;;;;6.19;100.00;97203.42;273671;1269;22198;-86
2023/10/26 05:01:26;;;;;;;45.60;28.80;;;;;;;6.24;100.00;97197.67;273308;1269;22367;-85
2023/10/26 05:07:29;;;;;;;44.00;28.50;;;;;;;6.27;100.00;97190.77;273219;1269;22168;-86
2023/10/26 05:13:33;;;;;;;45.80;29.00;;;;;;;6.33;100.00;97198.53;273375;1269;22172;-85
2023/10/26 05:19:38;;;;;;;45.60;30.10;;;;;;;6.38;100.00;97205.20;273533;1268;22527;-86
2023/10/26 05:25:49;;;;;;;39.70;25.10;;;;;;;6.43;100.00;97216.07;271357;1269;22662;-86
2023/10/26 05:31:51;;;;;;;39.90;25.70;;;;;;;6.47;100.00;97255.13;273042;1262;23839;-85
2023/10/26 05:37:53;;;;;;;35.10;22.60;;;;;;;6.52;100.00;97253.64;273353;1269;22651;-87
2023/10/26 05:44:01;;;;;;;36.50;24.70;;;;;;;6.59;100.00;97244.63;273391;1269;22156;-85
2023/10/26 05:50:12;;;;;;;40.30;25.40;;;;;;;6.65;100.00;97222.41;273464;1269;22470;-85
2023/10/26 05:56:14;;;;;;;35.90;24.00;;;;;;;6.70;100.00;97210.19;269023;1269;5503355;-86
2023/10/26 06:02:52;;;;;;;;;;;;;;;;;;;;;
2023/10/26 06:09:45;;;;;;;35.20;23.10;;;;;;;6.93;100.00;97224.83;272846;1268;22309;-85
2023/10/26 06:15:55;;;;;;;34.40;23.90;;;;;;;7.00;100.00;97233.11;273250;1269;22378;-86
2023/10/26 06:22:01;;;;;;;33.90;24.00;;;;;;;7.18;100.00;97218.98;273230;1268;22218;-87
2023/10/26 06:28:06;;;;;;;39.20;24.30;;;;;;;7.30;100.00;97201.59;273436;1268;22490;-87
2023/10/26 06:34:10;;;;;;;37.70;28.20;;;;;;;7.42;100.00;97167.63;273268;1269;22425;-87
2023/10/26 06:40:15;;;;;;;35.40;25.50;;;;;;;7.53;100.00;97142.59;270722;1269;25425;-84
2023/10/26 06:46:18;;;;;;;37.80;25.40;;;;;;;7.67;100.00;97151.36;270815;1268;23441;-84
2023/10/26 06:52:20;;;;;;;39.60;25.20;;;;;;;7.81;100.00;97155.07;273336;1262;23685;-85
2023/10/26 06:58:22;;;;;;;30.10;20.90;;;;;;;7.97;100.00;97154.48;273461;1257;22447;-85
2023/10/26 07:04:24;;;;;;;31.60;22.00;;;;;;;8.15;100.00;97161.73;273245;1269;23044;-85
2023/10/26 07:10:26;;;;;;;30.50;21.00;;;;;;;8.34;100.00;97165.80;273517;1269;22366;-86
2023/10/26 07:16:29;;;;;;;32.60;22.80;;;;;;;8.46;100.00;97159.13;272242;1269;22169;-86
2023/10/26 07:22:34;;;;;;;30.50;20.20;;;;;;;8.55;100.00;97164.81;273627;1269;22305;-85
2023/10/26 07:28:36;;;;;;;30.70;21.60;;;;;;;8.62;100.00;97166.52;273439;1269;22374;-86
2023/10/26 07:35:03;;;;;;;33.70;21.70;;;;;;;8.69;100.00;97165.52;270716;1269;23473;-86
2023/10/26 07:41:08;;;;;;;29.70;21.60;;;;;;;8.78;100.00;97163.00;272367;1268;23594;-86
2023/10/26 07:47:15;;;;;;;28.30;19.30;;;;;;;8.87;100.00;97147.79;272379;1269;22539;-85
2023/10/26 07:53:42;;;;;;;30.80;20.30;;;;;;;8.95;100.00;97148.63;272857;1269;22369;-85
2023/10/26 07:59:47;;;;;;;29.50;18.90;;;;;;;9.05;100.00;97152.25;273422;1269;22287;-85
2023/10/26 08:06:23;;;;;;;26.80;18.50;;;;;;;9.14;100.00;97152.76;273290;1269;22187;-85
2023/10/26 08:12:25;;;;;;;27.90;18.90;;;;;;;9.24;100.00;97177.75;273487;1264;22295;-87
2023/10/26 08:18:27;;;;;;;33.90;22.90;;;;;;;9.35;100.00;97183.14;273406;1269;23423;-86
2023/10/26 08:24:49;;;;;;;37.50;23.60;;;;;;;9.46;100.00;97178.00;272750;1268;22501;-86
2023/10/26 08:31:12;;;;;;;31.20;22.20;;;;;;;9.65;100.00;97162.52;273423;1268;22197;-85
2023/10/26 08:37:14;;;;;;;28.80;20.90;;;;;;;9.92;100.00;97148.53;273759;1262;22875;-86
2023/10/26 08:43:21;;;;;;;26.80;18.80;;;;;;;10.12;100.00;97134.95;272818;1269;22429;-85
2023/10/26 08:49:26;;;;;;;25.00;19.50;;;;;;;10.28;100.00;97138.59;273486;1267;22868;-85
2023/10/26 08:55:31;;;;;;;29.50;22.30;;;;;;;10.40;100.00;97145.34;273886;1269;22165;-85
2023/10/26 09:01:34;;;;;;;23.00;16.10;;;;;;;10.52;100.00;97153.92;273262;1269;22522;-85
2023/10/26 09:07:37;;;;;;;17.90;12.30;;;;;;;10.70;100.00;97154.08;273453;1270;22893;-84
2023/10/26 09:13:39;;;;;;;11.50;8.70;;;;;;;10.96;100.00;97144.34;273277;1269;22191;-85
2023/10/26 09:19:45;;;;;;;9.80;6.70;;;;;;;11.30;100.00;97139.82;273576;1269;22301;-85
2023/10/26 09:26:17;;;;;;;27.00;14.70;;;;;;;11.59;100.00;97135.91;273539;1269;22914;-84
2023/10/26 09:32:19;;;;;;;23.00;14.10;;;;;;;11.73;100.00;97137.80;273334;1269;23188;-85
2023/10/26 09:38:47;;;;;;;10.00;5.30;;;;;;;11.81;100.00;97128.91;273382;1268;22310;-84
2023/10/26 09:44:51;;;;;;;8.20;4.10;;;;;;;11.91;100.00;97125.14;273031;1268;22974;-84
2023/10/26 09:51:00;;;;;;;7.30;3.80;;;;;;;12.04;100.00;97122.32;273206;1269;22472;-84
2023/10/26 09:57:26;;;;;;;7.10;3.90;;;;;;;12.23;100.00;97121.00;271477;1269;22539;-84
2023/10/26 10:03:43;;;;;;;10.70;4.50;;;;;;;12.38;100.00;97124.29;271093;1269;22601;-85
2023/10/26 10:10:09;;;;;;;5.80;3.00;;;;;;;12.46;100.00;97119.29;272916;1269;22380;-84
2023/10/26 10:16:50;;;;;;;5.60;2.80;;;;;;;12.53;100.00;97114.48;271427;1269;22532;-84
2023/10/26 10:23:00;;;;;;;5.20;2.40;;;;;;;12.56;100.00;97118.39;270639;1275;22247;-84
2023/10/26 10:29:17;;;;;;;4.10;2.40;;;;;;;12.60;100.00;97121.42;272175;1265;22203;-84
2023/10/26 10:35:43;;;;;;;5.00;3.20;;;;;;;12.67;100.00;97116.95;271446;1269;22433;-86
2023/10/26 10:41:45;;;;;;;5.60;2.10;;;;;;;12.94;100.00;97107.10;273255;1269;22403;-85
2023/10/26 10:47:47;;;;;;;6.40;2.30;;;;;;;13.27;100.00;97097.21;273649;1269;23337;-85
2023/10/26 10:53:50;;;;;;;6.80;1.60;;;;;;;13.57;100.00;97087.88;272457;1269;23287;-85
2023/10/26 10:59:52;;;;;;;2.10;1.30;;;;;;;13.91;100.00;97090.73;270460;1269;22537;-85
2023/10/26 11:05:55;;;;;;;1.80;1.00;;;;;;;14.28;100.00;97082.99;271848;1269;22542;-85
2023/10/26 11:12:08;;;;;;;1.30;0.80;;;;;;;14.61;100.00;97081.56;273443;1269;23108;-86
2023/10/26 11:18:24;;;;;;;2.20;1.10;;;;;;;14.65;100.00;97087.25;271277;1269;23120;-84
2023/10/26 11:24:34;;;;;;;4.30;1.30;;;;;;;14.62;100.00;97097.16;273367;1269;22050;-84
2023/10/26 11:31:05;;;;;;;3.30;1.10;;;;;;;14.46;100.00;97096.63;273371;1269;22194;-85
2023/10/26 11:37:06;;;;;;;3.20;1.30;;;;;;;14.33;100.00;97098.41;272961;1269;22511;-85
2023/10/26 11:43:08;;;;;;;1.40;1.10;;;;;;;14.43;100.00;97094.13;271195;1269;22516;-86
2023/10/26 11:49:10;;;;;;;2.10;1.00;;;;;;;14.58;100.00;97100.84;272944;1269;23945;-86
2023/10/26 11:55:14;;;;;;;2.90;1.10;;;;;;;14.52;100.00;97104.36;270931;1269;22545;-88
2023/10/26 12:01:16;;;;;;;2.30;1.20;;;;;;;14.37;100.00;97106.30;271429;1269;22510;-85
2023/10/26 12:07:18;;;;;;;2.60;1.00;;;;;;;14.37;100.00;97103.71;271997;1269;22580;-86
2023/10/26 12:13:20;;;;;;;1.80;0.90;;;;;;;14.39;100.00;97102.20;270618;1269;22667;-86
2023/10/26 12:19:22;;;;;;;3.40;1.10;;;;;;;14.48;100.00;97103.00;271868;1269;22561;-85
2023/10/26 12:25:26;;;;;;;2.50;1.20;;;;;;;14.51;100.00;97106.49;271950;1269;22393;-86
2023/10/26 12:31:28;;;;;;;2.70;1.30;;;;;;;14.59;100.00;97106.69;273075;1269;22499;-85
2023/10/26 12:37:30;;;;;;;2.50;1.20;;;;;;;14.68;100.00;97111.82;272643;1269;22563;-84
2023/10/26 12:43:32;;;;;;;2.40;1.20;;;;;;;14.65;100.00;97108.15;272515;1269;22166;-86
2023/10/26 12:49:34;;;;;;;2.60;1.20;;;;;;;14.53;100.00;97105.56;272659;1269;22234;-85
2023/10/26 12:55:36;;;;;;;3.90;1.80;;;;;;;14.45;100.00;97107.05;273249;1269;22357;-85
2023/10/26 13:01:38;;;;;;;2.20;1.30;;;;;;;14.41;100.00;97118.83;273115;1269;22366;-85
2023/10/26 13:07:42;;;;;;;4.40;1.20;;;;;;;14.45;100.00;97120.66;271606;1269;25478;-84
2023/10/26 13:13:44;;;;;;;4.60;1.50;;;;;;;14.36;100.00;97122.35;271219;1269;23996;-85
2023/10/26 13:19:50;;;;;;;3.80;1.30;;;;;;;14.30;100.00;97121.25;273395;1270;22494;-84
2023/10/26 13:25:52;;;;;;;3.10;1.20;;;;;;;14.31;100.00;97115.48;272914;1270;22546;-85
2023/10/26 13:31:54;;;;;;;2.10;1.10;;;;;;;14.36;100.00;97118.53;271220;1269;23642;-85
2023/10/26 13:37:56;;;;;;;3.10;1.10;;;;;;;14.39;100.00;97113.46;272825;1269;22206;-85
2023/10/26 13:44:02;;;;;;;3.30;1.30;;;;;;;14.40;100.00;97110.98;273367;1270;23743;-85
2023/10/26 13:50:05;;;;;;;4.80;2.00;;;;;;;14.42;100.00;97111.16;273581;1270;22357;-84
2023/10/26 13:56:34;;;;;;;5.20;2.00;;;;;;;14.45;100.00;97116.12;273648;1272;23337;-84
2023/10/26 14:02:36;;;;;;;3.50;1.50;;;;;;;14.46;100.00;97115.45;273631;1269;22951;-85
2023/10/26 14:08:38;;;;;;;1.70;1.10;;;;;;;14.48;100.00;97112.13;272281;1270;22538;-85
2023/10/26 14:14:41;;;;;;;4.10;1.50;;;;;;;14.51;100.00;97108.96;272018;1267;22542;-85
2023/10/26 14:20:43;;;;;;;3.50;1.30;;;;;;;14.56;100.00;97114.84;272755;1269;24425;-85
2023/10/26 14:26:45;;;;;;;1.70;1.20;;;;;;;14.58;100.00;97117.21;273490;1264;22446;-85
2023/10/26 14:32:46;;;;;;;1.50;0.90;;;;;;;14.51;100.00;97122.59;272743;1269;22569;-85
2023/10/26 14:38:51;;;;;;;4.40;1.40;;;;;;;14.38;100.00;97119.46;271174;1269;22518;-86
2023/10/26 14:45:00;;;;;;;3.50;1.50;;;;;;;14.21;100.00;97125.98;272902;1267;22214;-86
2023/10/26 14:51:04;;;;;;;5.10;1.90;;;;;;;14.02;100.00;97135.86;273776;1269;22177;-85
2023/10/26 14:57:05;;;;;;;2.30;1.50;;;;;;;13.82;100.00;97137.23;273352;1269;22397;-86
2023/10/26 15:03:11;;;;;;;5.40;1.70;;;;;;;13.64;100.00;97136.45;273473;1270;23165;-85
2023/10/26 15:09:13;;;;;;;5.70;1.80;;;;;;;13.49;100.00;97141.39;271700;1269;22590;-85
2023/10/26 15:15:17;;;;;;;5.40;2.10;;;;;;;13.32;100.00;97143.48;273130;1269;22182;-85
2023/10/26 15:21:19;;;;;;;4.40;2.00;;;;;;;13.17;100.00;97147.13;272996;1260;22377;-84
2023/10/26 15:27:21;;;;;;;2.20;1.60;;;;;;;12.99;100.00;97142.73;273264;1268;22395;-85
2023/10/26 15:33:24;;;;;;;3.20;1.90;;;;;;;12.89;100.00;97137.35;273709;1275;22442;-85
2023/10/26 15:39:26;;;;;;;3.20;1.60;;;;;;;12.92;100.00;97143.00;273442;1270;22551;-85
2023/10/26 15:45:32;;;;;;;9.60;2.30;;;;;;;13.01;100.00;97148.51;270882;1263;22660;-85
2023/10/26 15:51:34;;;;;;;5.20;1.90;;;;;;;13.03;100.00;97159.90;272845;1269;23286;-85
2023/10/26 15:57:37;;;;;;;2.50;1.70;;;;;;;13.02;100.00;97164.40;273497;1268;22387;-85
2023/10/26 16:03:38;;;;;;;4.40;1.70;;;;;;;13.01;100.00;97169.37;273434;1272;22208;-85
2023/10/26 16:09:44;;;;;;;5.30;1.70;;;;;;;13.05;100.00;97176.09;272984;1267;22525;-84
2023/10/26 16:15:47;;;;;;;6.00;2.10;;;;;;;13.09;100.00;97178.97;273472;1269;22446;-84
2023/10/26 16:21:49;;;;;;;9.20;2.60;;;;;;;13.05;100.00;97186.63;273254;1264;22398;-84
2023/10/26 16:27:50;;;;;;;5.00;1.90;;;;;;;12.91;100.00;97184.70;273624;1269;22735;-84
2023/10/26 16:34:01;;;;;;;4.70;2.30;;;;;;;12.82;100.00;97187.53;273887;1275;23360;-85
2023/10/26 16:40:03;;;;;;;6.20;3.50;;;;;;;12.73;100.00;97193.02;273516;1269;22178;-85
2023/10/26 16:46:05;;;;;;;10.40;2.90;;;;;;;12.68;100.00;97190.88;272585;1269;22454;-85
2023/10/26 16:52:07;;;;;;;5.90;3.20;;;;;;;12.67;100.00;97185.42;264976;1269;10001684;-85
2023/10/26 16:58:11;;;;;;;7.40;3.30;;;;;;;12.67;100.00;97178.67;273333;1269;22336;-85
2023/10/26 17:04:13;;;;;;;6.90;3.70;;;;;;;12.66;100.00;97172.81;272480;1269;22568;-85
2023/10/26 17:10:18;;;;;;;5.10;3.00;;;;;;;12.67;100.00;97162.80;271880;1269;22527;-85
2023/10/26 17:16:20;;;;;;;6.00;2.80;;;;;;;12.67;100.00;97159.14;271955;1269;22618;-85
2023/10/26 17:22:22;;;;;;;4.00;2.70;;;;;;;12.66;100.00;97155.86;273429;1268;22296;-86
2023/10/26 17:28:24;;;;;;;7.00;3.50;;;;;;;12.64;100.00;97154.73;272308;1270;23394;-85
2023/10/26 17:34:26;;;;;;;6.50;3.80;;;;;;;12.58;100.00;97154.10;272541;1269;25178;-86
2023/10/26 17:40:28;;;;;;;7.40;3.80;;;;;;;12.55;100.00;97154.48;272115;1269;22547;-85
2023/10/26 17:46:30;;;;;;;6.20;3.40;;;;;;;12.55;100.00;97148.98;273347;1269;22468;-85
2023/10/26 17:52:32;;;;;;;6.30;3.40;;;;;;;12.60;100.00;97146.83;273244;1268;22414;-85
2023/10/26 17:58:34;;;;;;;5.70;3.80;;;;;;;12.62;100.00;97147.83;273421;1269;459297;-86
2023/10/26 18:05:02;;;;;;;5.70;3.70;;;;;;;12.60;100.00;97148.18;273561;1267;22209;-85
2023/10/26 18:11:24;;;;;;;5.80;3.40;;;;;;;12.58;100.00;97151.83;273864;1272;22158;-85
2023/10/26 18:17:26;;;;;;;10.00;3.70;;;;;;;12.55;100.00;97156.52;273280;1268;22362;-86
2023/10/26 18:23:29;;;;;;;9.80;3.50;;;;;;;12.57;99.99;97167.45;272992;1269;22435;-85
2023/10/26 18:29:37;;;;;;;9.90;3.40;;;;;;;12.60;99.98;97173.80;273563;1270;22255;-85
2023/10/26 18:35:39;;;;;;;6.70;3.90;;;;;;;12.60;99.96;97174.66;273034;1270;23059;-85
2023/10/26 18:41:50;;;;;;;9.00;3.90;;;;;;;12.60;99.93;97172.41;271830;1268;24508;-85
2023/10/26 18:47:52;;;;;;;12.20;4.30;;;;;;;12.66;99.64;97169.91;271786;1269;22534;-85
2023/10/26 18:53:55;;;;;;;7.40;3.60;;;;;;;12.70;99.21;97172.55;272080;1269;22611;-86
2023/10/26 18:59:57;;;;;;;8.50;4.30;;;;;;;12.76;98.93;97174.59;271968;1269;22638;-85
2023/10/26 19:06:01;;;;;;;7.30;3.20;;;;;;;12.79;98.63;97175.45;271770;1269;22665;-86
2023/10/26 19:12:03;;;;;;;7.70;3.40;;;;;;;12.77;98.71;97169.61;273476;1268;22371;-86
2023/10/26 19:18:06;;;;;;;5.90;2.90;;;;;;;12.75;98.65;97166.30;272758;1269;23748;-85
2023/10/26 19:24:08;;;;;;;8.20;4.00;;;;;;;12.74;98.88;97166.95;273296;1269;23484;-84
2023/10/26 19:30:10;;;;;;;6.30;2.80;;;;;;;12.78;98.58;97159.70;272171;1268;22742;-84
2023/10/26 19:36:12;;;;;;;3.70;2.30;;;;;;;12.88;98.11;97162.09;271856;1269;22682;-85
2023/10/26 19:42:14;;;;;;;6.40;2.90;;;;;;;12.96;97.56;97161.17;271833;1260;22587;-85
2023/10/26 19:48:16;;;;;;;6.90;3.20;;;;;;;12.98;97.12;97158.60;271768;1268;25359;-85
2023/10/26 19:54:20;;;;;;;6.20;2.90;;;;;;;12.97;97.05;97159.04;273458;1269;22223;-85
2023/10/26 20:00:22;;;;;;;5.30;3.20;;;;;;;12.96;96.92;97163.08;273477;1268;22559;-84
2023/10/26 20:06:29;;;;;;;5.90;2.90;;;;;;;12.94;96.71;97155.25;273668;1269;22510;-85
2023/10/26 20:12:34;;;;;;;;;;;;;;;12.92;96.82;97149.50;271579;1269;22534;-85
2023/10/26 20:18:59;;;;;;;6.00;3.10;;;;;;;12.87;96.88;97149.25;273194;1269;22239;-85
2023/10/26 20:25:03;;;;;;;5.30;2.90;;;;;;;12.84;97.03;97154.20;273455;1269;22424;-86
2023/10/26 20:31:10;;;;;;;7.90;3.20;;;;;;;12.81;97.29;97157.95;271797;1267;22551;-85
2023/10/26 20:37:13;;;;;;;9.90;3.30;;;;;;;12.75;97.64;97167.56;271697;1269;22650;-85
2023/10/26 20:43:21;;;;;;;6.90;3.60;;;;;;;12.69;98.08;97168.48;271981;1269;23127;-86
2023/10/26 20:49:24;;;;;;;9.50;3.90;;;;;;;12.67;98.28;97170.97;273441;1269;22175;-85
2023/10/26 20:55:26;;;;;;;7.90;3.90;;;;;;;12.66;98.61;97172.95;273581;1268;22187;-85
2023/10/26 21:01:28;;;;;;;6.40;3.50;;;;;;;12.69;98.66;97171.08;273450;1269;22407;-85
2023/10/26 21:07:30;;;;;;;11.90;3.60;;;;;;;12.70;98.95;97175.30;273678;1269;23197;-86
2023/10/26 21:13:32;;;;;;;6.10;3.40;;;;;;;12.59;99.22;97175.80;273264;1269;22659;-85
2023/10/26 21:19:39;;;;;;;11.10;3.80;;;;;;;12.46;99.53;97172.67;271676;1269;23448;-84
2023/10/26 21:25:42;;;;;;;8.90;3.70;;;;;;;12.34;99.81;97167.42;273625;1269;22358;-85
2023/10/26 21:31:44;;;;;;;7.30;3.80;;;;;;;12.22;99.97;97155.49;273624;1269;22561;-84
2023/10/26 21:37:45;;;;;;;9.50;3.80;;;;;;;12.15;100.00;97153.86;273434;1257;22493;-83
2023/10/26 21:43:47;;;;;;;7.10;3.50;;;;;;;12.11;100.00;97157.72;272137;1269;22204;-84
2023/10/26 21:50:14;;;;;;;8.20;3.80;;;;;;;12.08;100.00;97159.76;272185;1269;22165;-85
2023/10/26 21:56:16;;;;;;;11.30;3.70;;;;;;;12.05;100.00;97161.46;273564;1268;22444;-85
2023/10/26 22:02:25;;;;;;;8.50;4.50;;;;;;;11.97;100.00;97161.98;272292;1269;23653;-85
2023/10/26 22:08:30;;;;;;;7.50;3.90;;;;;;;11.86;100.00;97169.39;273425;1269;22379;-86
2023/10/26 22:14:32;;;;;;;6.70;4.00;;;;;;;11.79;100.00;97170.31;273627;1268;22474;-85
2023/10/26 22:20:36;;;;;;;5.80;2.90;;;;;;;11.71;100.00;97170.35;273029;1268;22607;-85
2023/10/26 22:26:42;;;;;;;14.10;3.40;;;;;;;11.62;100.00;97178.98;272102;1268;22697;-85
2023/10/26 22:32:44;;;;;;;3.70;2.40;;;;;;;11.57;100.00;97179.88;273225;1268;22404;-85
2023/10/26 22:38:45;;;;;;;5.30;2.30;;;;;;;11.52;100.00;97178.56;273421;1269;22374;-85
2023/10/26 22:44:49;;;;;;;6.40;2.20;;;;;;;11.48;100.00;97180.77;273564;1269;22655;-86
2023/10/26 22:50:54;;;;;;;7.00;2.30;;;;;;;11.44;100.00;97168.63;272115;1269;22411;-85
2023/10/26 22:56:56;;;;;;;5.30;1.30;;;;;;;11.38;100.00;97152.70;273529;1269;22448;-84
2023/10/26 23:02:59;;;;;;;1.90;1.30;;;;;;;11.36;100.00;97155.18;273531;1269;23464;-85
2023/10/26 23:09:03;;;;;;;2.20;1.40;;;;;;;11.36;100.00;97154.17;273202;1269;22507;-85
2023/10/26 23:15:24;;;;;;;3.20;1.50;;;;;;;11.35;100.00;97157.26;273618;1268;22190;-85
2023/10/26 23:21:28;;;;;;;2.00;1.40;;;;;;;11.30;100.00;97152.96;272318;1269;22589;-85
2023/10/26 23:27:30;;;;;;;2.10;0.90;;;;;;;11.31;100.00;97141.84;273618;1269;22227;-85
2023/10/26 23:33:33;;;;;;;1.40;1.00;;;;;;;11.31;100.00;97131.19;273427;1269;22295;-85
2023/10/26 23:39:35;;;;;;;2.80;1.30;;;;;;;11.30;100.00;97115.95;273420;1269;22252;-85
2023/10/26 23:45:37;;;;;;;4.00;1.30;;;;;;;11.29;100.00;97109.25;273385;1268;22382;-84
2023/10/26 23:51:38;;;;;;;5.10;1.40;;;;;;;11.23;100.00;97107.65;273574;1269;22236;-84
2023/10/26 23:57:41;;;;;;;2.90;1.20;;;;;;;11.23;100.00;97104.67;273493;1269;22900;-84
